sensor_id;sensor_type;location;lat;lon;timestamp;pressure;altitude;pressure_sealevel;temperature;humidity
73674;BME280;61975;48.660;10.164;2023-05-19T00:00:54;96074.97;;;12.12;68.52
73674;BME280;61975;48.660;10.164;2023-05-19T00:03:20;96082.53;;;12.11;68.27
73674;BME280;61975;48.660;10.164;2023-05-19T00:05:47;96076.16;;;12.11;69.01
73674;BME280;61975;48.660;10.164;2023-05-19T00:08:15;96072.97;;;12.09;69.17
73674;BME280;61975;48.660;10.164;2023-05-19T00:10:41;96078.16;;;12.14;69.20
73674;BME280;61975;48.660;10.164;2023-05-19T00:13:07;96067.03;;;12.14;68.76
73674;BME280;61975;48.660;10.164;2023-05-19T00:15:32;96067.03;;;12.14;69.12
73674;BME280;61975;48.660;10.164;2023-05-19T00:17:58;96062.16;;;12.04;69.71
73674;BME280;61975;48.660;10.164;2023-05-19T00:20:23;96061.44;;;12.10;69.29
73674;BME280;61975;48.660;10.164;2023-05-19T00:22:49;96054.25;;;12.09;69.49
73674;BME280;61975;48.660;10.164;2023-05-19T00:25:15;96061.41;;;12.07;69.94
73674;BME280;61975;48.660;10.164;2023-05-19T00:27:40;96064.63;;;12.09;69.62
73674;BME280;61975;48.660;10.164;2023-05-19T00:30:06;96064.63;;;12.09;69.73
73674;BME280;61975;48.660;10.164;2023-05-19T00:32:32;96059.81;;;12.06;70.24
73674;BME280;61975;48.660;10.164;2023-05-19T00:34:58;96058.22;;;12.05;70.30
73674;BME280;61975;48.660;10.164;2023-05-19T00:37:25;96057.41;;;12.04;70.64
73674;BME280;61975;48.660;10.164;2023-05-19T00:39:51;96066.13;;;12.03;70.42
73674;BME280;61975;48.660;10.164;2023-05-19T00:42:16;96057.78;;;11.99;70.85
73674;BME280;61975;48.660;10.164;2023-05-19T00:44:42;96058.53;;;11.96;70.93
73674;BME280;61975;48.660;10.164;2023-05-19T00:47:07;96051.63;;;11.83;71.20
73674;BME280;61975;48.660;10.164;2023-05-19T00:49:33;96053.91;;;11.74;72.06
73674;BME280;61975;48.660;10.164;2023-05-19T00:52:00;96058.69;;;11.74;71.62
73674;BME280;61975;48.660;10.164;2023-05-19T00:54:27;96051.50;;;11.73;70.77
73674;BME280;61975;48.660;10.164;2023-05-19T00:56:53;96044.78;;;11.74;70.89
73674;BME280;61975;48.660;10.164;2023-05-19T00:59:19;96047.94;;;11.72;70.94
73674;BME280;61975;48.660;10.164;2023-05-19T01:01:45;96043.53;;;11.71;70.75
73674;BME280;61975;48.660;10.164;2023-05-19T01:04:15;96041.13;;;11.70;71.21
73674;BME280;61975;48.660;10.164;2023-05-19T01:06:41;96038.31;;;11.66;71.80
73674;BME280;61975;48.660;10.164;2023-05-19T01:09:07;96038.75;;;11.68;71.28
73674;BME280;61975;48.660;10.164;2023-05-19T01:11:33;96034.78;;;11.69;71.22
73674;BME280;61975;48.660;10.164;2023-05-19T01:13:58;96034.78;;;11.69;71.72
73674;BME280;61975;48.660;10.164;2023-05-19T01:16:29;96032.38;;;11.68;71.75
73674;BME280;61975;48.660;10.164;2023-05-19T01:22:36;96043.50;;;11.68;71.50
73674;BME280;61975;48.660;10.164;2023-05-19T01:30:42;96037.03;;;11.60;72.64
73674;BME280;61975;48.660;10.164;2023-05-19T01:33:10;96033.03;;;11.58;73.14
73674;BME280;61975;48.660;10.164;2023-05-19T01:35:37;96036.19;;;11.56;72.88
73674;BME280;61975;48.660;10.164;2023-05-19T01:38:06;96036.84;;;11.43;73.94
73674;BME280;61975;48.660;10.164;2023-05-19T01:40:32;96043.19;;;11.43;73.63
73674;BME280;61975;48.660;10.164;2023-05-19T01:42:59;96034.13;;;11.50;73.08
73674;BME280;61975;48.660;10.164;2023-05-19T01:45:28;96041.34;;;11.54;73.13
73674;BME280;61975;48.660;10.164;2023-05-19T01:47:55;96042.88;;;11.52;72.69
73674;BME280;61975;48.660;10.164;2023-05-19T01:50:22;96042.13;;;11.55;72.71
73674;BME280;61975;48.660;10.164;2023-05-19T01:52:48;96043.69;;;11.52;72.72
73674;BME280;61975;48.660;10.164;2023-05-19T01:55:13;96040.84;;;11.45;72.51
73674;BME280;61975;48.660;10.164;2023-05-19T01:57:49;96046.78;;;11.47;73.27
73674;BME280;61975;48.660;10.164;2023-05-19T02:08:46;96054.22;;;11.36;72.88
73674;BME280;61975;48.660;10.164;2023-05-19T02:11:24;96047.22;;;11.46;72.54
73674;BME280;61975;48.660;10.164;2023-05-19T02:13:53;96052.03;;;11.52;72.48
73674;BME280;61975;48.660;10.164;2023-05-19T02:16:20;96050.44;;;11.51;72.36
73674;BME280;61975;48.660;10.164;2023-05-19T02:18:51;96049.25;;;11.52;72.46
73674;BME280;61975;48.660;10.164;2023-05-19T02:21:18;96044.00;;;11.47;72.68
73674;BME280;61975;48.660;10.164;2023-05-19T02:23:43;96038.88;;;11.49;72.24
73674;BME280;61975;48.660;10.164;2023-05-19T02:26:09;96040.47;;;11.50;72.33
73674;BME280;61975;48.660;10.164;2023-05-19T02:28:34;96026.56;;;11.50;72.23
73674;BME280;61975;48.660;10.164;2023-05-19T02:31:01;96021.06;;;11.54;72.10
73674;BME280;61975;48.660;10.164;2023-05-19T02:33:26;96020.25;;;11.53;71.68
73674;BME280;61975;48.660;10.164;2023-05-19T02:35:55;96018.28;;;11.54;71.86
73674;BME280;61975;48.660;10.164;2023-05-19T02:38:20;96019.88;;;11.55;72.30
73674;BME280;61975;48.660;10.164;2023-05-19T02:40:46;96013.53;;;11.54;71.67
73674;BME280;61975;48.660;10.164;2023-05-19T02:43:11;96013.94;;;11.53;71.88
73674;BME280;61975;48.660;10.164;2023-05-19T02:45:37;96000.78;;;11.50;71.52
73674;BME280;61975;48.660;10.164;2023-05-19T02:48:03;96009.78;;;11.40;72.96
73674;BME280;61975;48.660;10.164;2023-05-19T02:50:28;96007.03;;;11.43;72.72
73674;BME280;61975;48.660;10.164;2023-05-19T02:52:53;96005.91;;;11.48;72.53
73674;BME280;61975;48.660;10.164;2023-05-19T02:55:19;95997.56;;;11.48;72.52
73674;BME280;61975;48.660;10.164;2023-05-19T02:57:44;96008.69;;;11.48;73.08
73674;BME280;61975;48.660;10.164;2023-05-19T03:00:10;96005.91;;;11.48;72.86
73674;BME280;61975;48.660;10.164;2023-05-19T03:02:36;95998.38;;;11.48;72.76
73674;BME280;61975;48.660;10.164;2023-05-19T03:05:01;95998.75;;;11.47;72.96
73674;BME280;61975;48.660;10.164;2023-05-19T03:07:28;96001.06;;;11.41;73.36
73674;BME280;61975;48.660;10.164;2023-05-19T03:09:53;96000.69;;;11.43;73.28
73674;BME280;61975;48.660;10.164;2023-05-19T03:12:18;95993.53;;;11.42;73.33
73674;BME280;61975;48.660;10.164;2023-05-19T03:14:44;95996.72;;;11.44;73.68
73674;BME280;61975;48.660;10.164;2023-05-19T03:17:10;96003.88;;;11.45;74.14
73674;BME280;61975;48.660;10.164;2023-05-19T03:19:36;95997.91;;;11.43;74.07
73674;BME280;61975;48.660;10.164;2023-05-19T03:22:01;96002.66;;;11.42;73.75
73674;BME280;61975;48.660;10.164;2023-05-19T03:24:27;96006.63;;;11.41;73.40
73674;BME280;61975;48.660;10.164;2023-05-19T03:26:52;96003.03;;;11.41;74.04
73674;BME280;61975;48.660;10.164;2023-05-19T03:29:18;96005.81;;;11.41;73.59
73674;BME280;61975;48.660;10.164;2023-05-19T03:31:43;96004.63;;;11.42;74.22
73674;BME280;61975;48.660;10.164;2023-05-19T03:34:08;96003.44;;;11.39;74.40
73674;BME280;61975;48.660;10.164;2023-05-19T03:36:34;96001.47;;;11.40;74.02
73674;BME280;61975;48.660;10.164;2023-05-19T03:39:06;96005.81;;;11.41;74.37
73674;BME280;61975;48.660;10.164;2023-05-19T03:41:32;96006.63;;;11.41;74.53
73674;BME280;61975;48.660;10.164;2023-05-19T03:43:57;96005.81;;;11.41;74.97
73674;BME280;61975;48.660;10.164;2023-05-19T03:46:22;95998.69;;;11.40;74.82
73674;BME280;61975;48.660;10.164;2023-05-19T03:48:48;95995.91;;;11.40;75.15
73674;BME280;61975;48.660;10.164;2023-05-19T03:51:13;95997.50;;;11.41;75.28
73674;BME280;61975;48.660;10.164;2023-05-19T03:53:39;96006.59;;;11.38;75.17
73674;BME280;61975;48.660;10.164;2023-05-19T03:56:05;96014.13;;;11.37;75.22
73674;BME280;61975;48.660;10.164;2023-05-19T03:58:32;96010.13;;;11.35;75.32
73674;BME280;61975;48.660;10.164;2023-05-19T04:00:57;96010.94;;;11.35;75.00
73674;BME280;61975;48.660;10.164;2023-05-19T04:03:22;96010.88;;;11.32;75.37
73674;BME280;61975;48.660;10.164;2023-05-19T04:05:50;96020.41;;;11.31;74.95
73674;BME280;61975;48.660;10.164;2023-05-19T04:08:15;96019.22;;;11.32;75.60
73674;BME280;61975;48.660;10.164;2023-05-19T04:10:41;96019.63;;;11.30;75.17
73674;BME280;61975;48.660;10.164;2023-05-19T04:13:06;96006.41;;;11.23;75.50
73674;BME280;61975;48.660;10.164;2023-05-19T04:15:32;96008.44;;;11.27;75.94
73674;BME280;61975;48.660;10.164;2023-05-19T04:17:57;96009.63;;;11.26;76.28
73674;BME280;61975;48.660;10.164;2023-05-19T04:20:23;96009.63;;;11.26;76.42
73674;BME280;61975;48.660;10.164;2023-05-19T04:22:48;96004.84;;;11.26;76.04
73674;BME280;61975;48.660;10.164;2023-05-19T04:25:13;96006.88;;;11.29;75.50
73674;BME280;61975;48.660;10.164;2023-05-19T04:27:39;96015.22;;;11.29;75.27
73674;BME280;61975;48.660;10.164;2023-05-19T04:30:05;96004.09;;;11.29;76.13
73674;BME280;61975;48.660;10.164;2023-05-19T04:32:30;96009.28;;;11.31;75.63
73674;BME280;61975;48.660;10.164;2023-05-19T04:34:56;96008.91;;;11.32;75.80
73674;BME280;61975;48.660;10.164;2023-05-19T04:37:26;96005.31;;;11.32;75.96
73674;BME280;61975;48.660;10.164;2023-05-19T04:39:51;96008.97;;;11.36;76.79
73674;BME280;61975;48.660;10.164;2023-05-19T04:42:17;96009.78;;;11.40;76.73
73674;BME280;61975;48.660;10.164;2023-05-19T04:44:45;96001.91;;;11.45;76.53
73674;BME280;61975;48.660;10.164;2023-05-19T04:47:13;96012.13;;;11.34;78.21
73674;BME280;61975;48.660;10.164;2023-05-19T04:49:39;96002.72;;;11.46;77.33
73674;BME280;61975;48.660;10.164;2023-05-19T04:52:06;96012.31;;;11.52;76.24
73674;BME280;61975;48.660;10.164;2023-05-19T04:54:35;96009.19;;;11.57;76.14
73674;BME280;61975;48.660;10.164;2023-05-19T04:57:01;96011.22;;;11.60;75.24
73674;BME280;61975;48.660;10.164;2023-05-19T04:59:27;96008.88;;;11.62;76.49
73674;BME280;61975;48.660;10.164;2023-05-19T05:01:52;96010.03;;;11.61;76.51
73674;BME280;61975;48.660;10.164;2023-05-19T05:04:18;96013.31;;;11.66;76.25
73674;BME280;61975;48.660;10.164;2023-05-19T05:06:44;96008.50;;;11.63;77.00
73674;BME280;61975;48.660;10.164;2023-05-19T05:09:13;96008.44;;;11.60;77.56
73674;BME280;61975;48.660;10.164;2023-05-19T05:11:39;96002.81;;;11.53;77.42
73674;BME280;61975;48.660;10.164;2023-05-19T05:14:05;96011.66;;;11.62;76.74
73674;BME280;61975;48.660;10.164;2023-05-19T05:16:31;96005.97;;;11.55;78.10
73674;BME280;61975;48.660;10.164;2023-05-19T05:18:58;96006.09;;;11.62;77.73
73674;BME280;61975;48.660;10.164;2023-05-19T05:21:24;96007.81;;;11.73;77.17
73674;BME280;61975;48.660;10.164;2023-05-19T05:23:50;96006.22;;;11.72;77.54
73674;BME280;61975;48.660;10.164;2023-05-19T05:26:17;96000.78;;;11.86;76.61
73674;BME280;61975;48.660;10.164;2023-05-19T05:28:49;96008.31;;;11.82;77.07
73674;BME280;61975;48.660;10.164;2023-05-19T05:31:14;96000.75;;;11.83;75.58
73674;BME280;61975;48.660;10.164;2023-05-19T05:33:41;96000.75;;;11.83;75.64
73674;BME280;61975;48.660;10.164;2023-05-19T05:36:07;96000.47;;;11.95;75.47
73674;BME280;61975;48.660;10.164;2023-05-19T05:38:33;95999.28;;;11.96;74.67
73674;BME280;61975;48.660;10.164;2023-05-19T05:40:59;96001.66;;;11.94;75.02
73674;BME280;61975;48.660;10.164;2023-05-19T05:43:26;95998.22;;;12.07;74.35
73674;BME280;61975;48.660;10.164;2023-05-19T05:45:52;95999.34;;;12.03;73.98
73674;BME280;61975;48.660;10.164;2023-05-19T05:48:17;95999.84;;;12.12;72.92
73674;BME280;61975;48.660;10.164;2023-05-19T05:50:44;96003.41;;;12.09;73.05
73674;BME280;61975;48.660;10.164;2023-05-19T05:53:16;96007.69;;;12.03;73.04
73674;BME280;61975;48.660;10.164;2023-05-19T05:55:42;96012.63;;;12.20;72.58
73674;BME280;61975;48.660;10.164;2023-05-19T05:58:08;96003.53;;;12.26;71.93
73674;BME280;61975;48.660;10.164;2023-05-19T06:00:36;96013.81;;;12.19;72.19
73674;BME280;61975;48.660;10.164;2023-05-19T06:03:02;96011.50;;;12.28;71.65
73674;BME280;61975;48.660;10.164;2023-05-19T06:05:28;96010.28;;;12.22;71.63
73674;BME280;61975;48.660;10.164;2023-05-19T06:07:54;96013.13;;;12.29;71.34
73674;BME280;61975;48.660;10.164;2023-05-19T06:10:19;96009.19;;;12.37;71.10
73674;BME280;61975;48.660;10.164;2023-05-19T06:12:45;96010.78;;;12.34;70.68
73674;BME280;61975;48.660;10.164;2023-05-19T06:15:10;96002.84;;;12.40;71.23
73674;BME280;61975;48.660;10.164;2023-05-19T06:17:36;96011.59;;;12.38;71.25
73674;BME280;61975;48.660;10.164;2023-05-19T06:20:02;96007.28;;;12.48;70.49
73674;BME280;61975;48.660;10.164;2023-05-19T06:22:29;96000.56;;;12.56;70.47
73674;BME280;61975;48.660;10.164;2023-05-19T06:24:55;95993.44;;;12.58;69.84
73674;BME280;61975;48.660;10.164;2023-05-19T06:27:20;96002.66;;;12.69;69.49
73674;BME280;61975;48.660;10.164;2023-05-19T06:29:46;96005.47;;;12.69;69.68
73674;BME280;61975;48.660;10.164;2023-05-19T06:32:11;96020.63;;;12.79;69.49
73674;BME280;61975;48.660;10.164;2023-05-19T06:34:36;96003.06;;;12.71;69.27
73674;BME280;61975;48.660;10.164;2023-05-19T06:37:04;96007.09;;;12.74;69.07
73674;BME280;61975;48.660;10.164;2023-05-19T06:39:30;96008.72;;;12.85;68.34
73674;BME280;61975;48.660;10.164;2023-05-19T06:41:55;96006.31;;;12.80;69.13
73674;BME280;61975;48.660;10.164;2023-05-19T06:44:21;96009.09;;;12.80;68.56
73674;BME280;61975;48.660;10.164;2023-05-19T06:46:46;96006.34;;;12.87;68.25
73674;BME280;61975;48.660;10.164;2023-05-19T06:49:12;96010.78;;;12.92;68.37
73674;BME280;61975;48.660;10.164;2023-05-19T06:51:37;96013.88;;;12.80;67.88
73674;BME280;61975;48.660;10.164;2023-05-19T06:54:02;96020.72;;;12.89;67.75
73674;BME280;61975;48.660;10.164;2023-05-19T06:56:28;96019.06;;;12.81;68.56
73674;BME280;61975;48.660;10.164;2023-05-19T06:58:53;96019.09;;;12.85;69.01
73674;BME280;61975;48.660;10.164;2023-05-19T07:01:19;96009.56;;;12.93;68.49
73674;BME280;61975;48.660;10.164;2023-05-19T07:03:44;96018.66;;;12.83;68.57
73674;BME280;61975;48.660;10.164;2023-05-19T07:06:10;96012.38;;;12.93;68.89
73674;BME280;61975;48.660;10.164;2023-05-19T07:08:36;96016.81;;;13.01;68.38
73674;BME280;61975;48.660;10.164;2023-05-19T07:11:01;96022.41;;;13.08;67.78
73674;BME280;61975;48.660;10.164;2023-05-19T07:13:27;96009.59;;;12.96;68.50
73674;BME280;61975;48.660;10.164;2023-05-19T07:15:52;96005.59;;;12.94;68.24
73674;BME280;61975;48.660;10.164;2023-05-19T07:18:20;96004.81;;;12.97;68.23
73674;BME280;61975;48.660;10.164;2023-05-19T07:20:46;96011.66;;;13.06;67.72
73674;BME280;61975;48.660;10.164;2023-05-19T07:23:11;96008.44;;;13.01;68.14
73674;BME280;61975;48.660;10.164;2023-05-19T07:25:36;95998.03;;;12.98;67.39
73674;BME280;61975;48.660;10.164;2023-05-19T07:28:02;96006.91;;;13.03;66.89
73674;BME280;61975;48.660;10.164;2023-05-19T07:30:27;96009.31;;;13.12;67.27
73674;BME280;61975;48.660;10.164;2023-05-19T07:32:53;96012.94;;;13.16;67.39
73674;BME280;61975;48.660;10.164;2023-05-19T07:35:19;96007.78;;;13.25;67.23
73674;BME280;61975;48.660;10.164;2023-05-19T07:37:47;96001.84;;;13.30;67.38
73674;BME280;61975;48.660;10.164;2023-05-19T07:40:12;96003.06;;;13.39;67.18
73674;BME280;61975;48.660;10.164;2023-05-19T07:42:38;96000.28;;;13.43;65.58
73674;BME280;61975;48.660;10.164;2023-05-19T07:45:03;96001.09;;;13.50;65.25
73674;BME280;61975;48.660;10.164;2023-05-19T07:47:29;95995.19;;;13.62;65.54
73674;BME280;61975;48.660;10.164;2023-05-19T07:49:55;96000.75;;;13.66;64.86
73674;BME280;61975;48.660;10.164;2023-05-19T07:52:20;95995.97;;;13.70;64.63
73674;BME280;61975;48.660;10.164;2023-05-19T07:54:45;95992.38;;;13.66;65.66
73674;BME280;61975;48.660;10.164;2023-05-19T07:57:11;96001.16;;;13.71;64.35
73674;BME280;61975;48.660;10.164;2023-05-19T07:59:36;95999.56;;;13.74;64.25
73674;BME280;61975;48.660;10.164;2023-05-19T08:02:02;95998.41;;;13.75;64.85
73674;BME280;61975;48.660;10.164;2023-05-19T08:04:27;95991.66;;;13.90;65.14
73674;BME280;61975;48.660;10.164;2023-05-19T08:06:52;95998.84;;;14.05;63.62
73674;BME280;61975;48.660;10.164;2023-05-19T08:09:19;95989.31;;;14.20;63.43
73674;BME280;61975;48.660;10.164;2023-05-19T08:11:44;95990.94;;;14.32;62.48
73674;BME280;61975;48.660;10.164;2023-05-19T08:14:11;95994.50;;;14.39;62.37
73674;BME280;61975;48.660;10.164;2023-05-19T08:16:36;95996.53;;;14.39;61.79
73674;BME280;61975;48.660;10.164;2023-05-19T08:19:02;95994.91;;;14.41;61.67
73674;BME280;61975;48.660;10.164;2023-05-19T08:21:30;95995.72;;;14.45;62.13
73674;BME280;61975;48.660;10.164;2023-05-19T08:23:59;95985.34;;;14.60;61.13
73674;BME280;61975;48.660;10.164;2023-05-19T08:26:25;95978.94;;;14.66;60.36
73674;BME280;61975;48.660;10.164;2023-05-19T08:28:51;95987.69;;;14.82;59.93
73674;BME280;61975;48.660;10.164;2023-05-19T08:31:17;95978.06;;;15.01;59.73
73674;BME280;61975;48.660;10.164;2023-05-19T08:33:43;95979.63;;;15.16;59.32
73674;BME280;61975;48.660;10.164;2023-05-19T08:36:08;95987.59;;;15.14;58.95
73674;BME280;61975;48.660;10.164;2023-05-19T08:38:34;95976.78;;;15.23;58.73
73674;BME280;61975;48.660;10.164;2023-05-19T08:41:00;95976.00;;;15.26;58.26
73674;BME280;61975;48.660;10.164;2023-05-19T08:43:25;95973.97;;;15.30;56.25
73674;BME280;61975;48.660;10.164;2023-05-19T08:45:51;95972.38;;;15.25;56.16
73674;BME280;61975;48.660;10.164;2023-05-19T08:48:18;95983.63;;;15.15;57.45
73674;BME280;61975;48.660;10.164;2023-05-19T08:53:35;95977.25;;;15.07;57.53
73674;BME280;61975;48.660;10.164;2023-05-19T08:56:08;95966.09;;;15.00;57.25
73674;BME280;61975;48.660;10.164;2023-05-19T08:58:39;95984.13;;;14.78;57.36
73674;BME280;61975;48.660;10.164;2023-05-19T09:01:06;95978.94;;;14.66;58.02
73674;BME280;61975;48.660;10.164;2023-05-19T09:03:33;95978.94;;;14.42;58.26
73674;BME280;61975;48.660;10.164;2023-05-19T09:06:04;95975.75;;;14.50;58.34
73674;BME280;61975;48.660;10.164;2023-05-19T09:08:30;95974.16;;;14.60;58.54
73674;BME280;61975;48.660;10.164;2023-05-19T09:10:55;95972.16;;;14.53;58.62
73674;BME280;61975;48.660;10.164;2023-05-19T09:13:21;95972.56;;;14.55;58.44
73674;BME280;61975;48.660;10.164;2023-05-19T09:15:47;95974.56;;;14.58;59.37
73674;BME280;61975;48.660;10.164;2023-05-19T09:18:14;95964.97;;;14.63;58.90
73674;BME280;61975;48.660;10.164;2023-05-19T09:20:41;95974.94;;;14.67;58.55
73674;BME280;61975;48.660;10.164;2023-05-19T09:23:11;95975.72;;;14.71;58.49
73674;BME280;61975;48.660;10.164;2023-05-19T09:25:46;95963.75;;;14.67;59.08
73674;BME280;61975;48.660;10.164;2023-05-19T09:28:12;95970.94;;;14.65;58.82
73674;BME280;61975;48.660;10.164;2023-05-19T09:30:37;95966.94;;;14.73;58.42
73674;BME280;61975;48.660;10.164;2023-05-19T09:33:03;95960.56;;;14.62;57.61
73674;BME280;61975;48.660;10.164;2023-05-19T09:35:33;95966.19;;;14.58;58.10
73674;BME280;61975;48.660;10.164;2023-05-19T09:37:59;95967.75;;;14.59;58.11
73674;BME280;61975;48.660;10.164;2023-05-19T09:40:27;95963.78;;;14.46;58.38
73674;BME280;61975;48.660;10.164;2023-05-19T09:42:52;95970.97;;;14.37;58.05
73674;BME280;61975;48.660;10.164;2023-05-19T09:45:18;95966.19;;;14.44;58.84
73674;BME280;61975;48.660;10.164;2023-05-19T09:47:44;95968.97;;;14.34;58.61
73674;BME280;61975;48.660;10.164;2023-05-19T09:50:11;95961.81;;;14.33;59.09
73674;BME280;61975;48.660;10.164;2023-05-19T09:52:37;95965.41;;;14.33;59.58
73674;BME280;61975;48.660;10.164;2023-05-19T09:55:04;95966.97;;;14.31;58.97
73674;BME280;61975;48.660;10.164;2023-05-19T09:57:34;95964.19;;;14.38;59.22
73674;BME280;61975;48.660;10.164;2023-05-19T10:00:07;95966.19;;;14.48;58.75
73674;BME280;61975;48.660;10.164;2023-05-19T10:02:40;95956.59;;;14.49;58.67
73674;BME280;61975;48.660;10.164;2023-05-19T10:05:12;95958.59;;;14.52;58.91
73674;BME280;61975;48.660;10.164;2023-05-19T10:07:38;95953.00;;;14.48;58.13
73674;BME280;61975;48.660;10.164;2023-05-19T10:10:08;95956.19;;;14.54;58.59
73674;BME280;61975;48.660;10.164;2023-05-19T10:12:34;95954.22;;;14.33;58.25
73674;BME280;61975;48.660;10.164;2023-05-19T10:15:00;95958.22;;;14.29;58.92
73674;BME280;61975;48.660;10.164;2023-05-19T10:17:26;95955.41;;;14.22;58.17
73674;BME280;61975;48.660;10.164;2023-05-19T10:19:52;95952.19;;;14.13;59.13
73674;BME280;61975;48.660;10.164;2023-05-19T10:22:19;95954.59;;;14.18;59.45
73674;BME280;61975;48.660;10.164;2023-05-19T10:24:44;95953.81;;;14.24;59.17
73674;BME280;61975;48.660;10.164;2023-05-19T10:27:12;95943.03;;;14.26;58.98
73674;BME280;61975;48.660;10.164;2023-05-19T10:29:41;95953.38;;;14.15;59.34
73674;BME280;61975;48.660;10.164;2023-05-19T10:32:15;95950.19;;;14.17;59.38
73674;BME280;61975;48.660;10.164;2023-05-19T10:40:32;95951.41;;;14.51;59.25
73674;BME280;61975;48.660;10.164;2023-05-19T10:43:53;95952.59;;;14.53;59.20
73674;BME280;61975;48.660;10.164;2023-05-19T10:45:52;95947.78;;;14.57;58.42
73674;BME280;61975;48.660;10.164;2023-05-19T10:48:19;95955.75;;;14.66;59.33
73674;BME280;61975;48.660;10.164;2023-05-19T10:50:46;95958.16;;;14.71;58.59
73674;BME280;61975;48.660;10.164;2023-05-19T10:53:16;95949.38;;;14.76;58.99
73674;BME280;61975;48.660;10.164;2023-05-19T10:58:52;95952.94;;;14.90;58.36
73674;BME280;61975;48.660;10.164;2023-05-19T11:01:18;95953.34;;;14.92;58.29
73674;BME280;61975;48.660;10.164;2023-05-19T11:06:24;95945.38;;;14.84;57.65
73674;BME280;61975;48.660;10.164;2023-05-19T11:11:45;95949.31;;;14.90;57.69
73674;BME280;61975;48.660;10.164;2023-05-19T11:14:11;95950.53;;;14.89;57.67
73674;BME280;61975;48.660;10.164;2023-05-19T11:16:39;95950.19;;;14.69;58.31
73674;BME280;61975;48.660;10.164;2023-05-19T11:19:25;95944.16;;;14.81;58.09
73674;BME280;61975;48.660;10.164;2023-05-19T11:21:51;95949.34;;;14.86;58.21
73674;BME280;61975;48.660;10.164;2023-05-19T11:24:42;95953.75;;;14.73;57.74
73674;BME280;61975;48.660;10.164;2023-05-19T11:27:31;95946.94;;;14.81;57.89
73674;BME280;61975;48.660;10.164;2023-05-19T11:32:34;95941.78;;;14.83;57.92
73674;BME280;61975;48.660;10.164;2023-05-19T11:35:01;95944.53;;;14.87;58.21
73674;BME280;61975;48.660;10.164;2023-05-19T11:37:26;95943.34;;;14.84;58.05
73674;BME280;61975;48.660;10.164;2023-05-19T11:39:55;95946.94;;;14.88;58.42
73674;BME280;61975;48.660;10.164;2023-05-19T11:42:20;95956.56;;;14.77;58.38
73674;BME280;61975;48.660;10.164;2023-05-19T11:44:46;95954.19;;;14.75;58.54
73674;BME280;61975;48.660;10.164;2023-05-19T11:47:12;95952.56;;;14.78;57.94
73674;BME280;61975;48.660;10.164;2023-05-19T11:49:42;95956.97;;;14.65;58.38
73674;BME280;61975;48.660;10.164;2023-05-19T11:52:07;95950.16;;;14.73;58.13
73674;BME280;61975;48.660;10.164;2023-05-19T11:54:33;95950.97;;;14.80;58.15
73674;BME280;61975;48.660;10.164;2023-05-19T11:57:03;95943.78;;;14.76;59.01
73674;BME280;61975;48.660;10.164;2023-05-19T11:59:33;95940.56;;;14.88;58.52
73674;BME280;61975;48.660;10.164;2023-05-19T12:02:14;95946.94;;;14.88;57.82
73674;BME280;61975;48.660;10.164;2023-05-19T12:04:40;95947.31;;;14.94;58.18
73674;BME280;61975;48.660;10.164;2023-05-19T12:07:05;95948.56;;;14.82;58.51
73674;BME280;61975;48.660;10.164;2023-05-19T12:09:31;95942.94;;;14.93;58.02
73674;BME280;61975;48.660;10.164;2023-05-19T12:11:56;95942.94;;;14.86;58.11
73674;BME280;61975;48.660;10.164;2023-05-19T12:14:24;95939.78;;;14.80;58.19
73674;BME280;61975;48.660;10.164;2023-05-19T12:16:50;95943.34;;;14.95;57.87
73674;BME280;61975;48.660;10.164;2023-05-19T12:19:15;95941.69;;;15.04;58.17
73674;BME280;61975;48.660;10.164;2023-05-19T12:21:41;95932.94;;;14.95;58.57
73674;BME280;61975;48.660;10.164;2023-05-19T12:24:06;95940.50;;;15.09;57.53
73674;BME280;61975;48.660;10.164;2023-05-19T12:26:32;95938.03;;;15.21;57.37
73674;BME280;61975;48.660;10.164;2023-05-19T12:28:57;95922.03;;;15.36;57.06
73674;BME280;61975;48.660;10.164;2023-05-19T12:31:23;95923.53;;;15.51;57.49
73674;BME280;61975;48.660;10.164;2023-05-19T12:33:48;95927.94;;;15.55;56.96
73674;BME280;61975;48.660;10.164;2023-05-19T12:36:17;95918.69;;;15.62;56.59
73674;BME280;61975;48.660;10.164;2023-05-19T12:38:43;95923.47;;;15.68;56.29
73674;BME280;61975;48.660;10.164;2023-05-19T12:41:12;95920.63;;;15.75;56.05
73674;BME280;61975;48.660;10.164;2023-05-19T12:43:39;95923.41;;;15.75;56.61
73674;BME280;61975;48.660;10.164;2023-05-19T12:46:12;95916.97;;;15.78;57.00
73674;BME280;61975;48.660;10.164;2023-05-19T12:48:44;95916.16;;;15.85;56.33
73674;BME280;61975;48.660;10.164;2023-05-19T12:51:15;95923.31;;;15.89;55.84
73674;BME280;61975;48.660;10.164;2023-05-19T12:53:41;95910.84;;;15.97;55.77
73674;BME280;61975;48.660;10.164;2023-05-19T12:56:13;95912.84;;;15.97;55.45
73674;BME280;61975;48.660;10.164;2023-05-19T12:58:40;95912.13;;;15.89;55.87
73674;BME280;61975;48.660;10.164;2023-05-19T13:01:06;95911.31;;;15.85;55.63
73674;BME280;61975;48.660;10.164;2023-05-19T13:03:38;95905.72;;;15.85;55.95
73674;BME280;61975;48.660;10.164;2023-05-19T13:06:04;95918.63;;;15.72;56.29
73674;BME280;61975;48.660;10.164;2023-05-19T13:08:30;95922.56;;;15.82;55.88
73674;BME280;61975;48.660;10.164;2023-05-19T13:10:55;95926.22;;;15.72;56.14
73674;BME280;61975;48.660;10.164;2023-05-19T13:13:20;95915.44;;;15.70;56.19
73674;BME280;61975;48.660;10.164;2023-05-19T13:15:46;95916.69;;;15.62;56.12
73674;BME280;61975;48.660;10.164;2023-05-19T13:18:15;95911.53;;;15.54;56.42
73674;BME280;61975;48.660;10.164;2023-05-19T13:20:42;95905.94;;;15.54;57.21
73674;BME280;61975;48.660;10.164;2023-05-19T13:23:12;95913.63;;;15.39;57.12
73674;BME280;61975;48.660;10.164;2023-05-19T13:25:39;95914.06;;;15.24;57.35